Thunder radar more information blitzortung!


Löydät sääaseman tiedot myös:

European Weather Network

Finland Weather Exchange

Weather Underground

AWEKAS



Weather Underground säähistoriasivu

Päivittäin yhteenveto Heinäkuu 28, 2017 Yksiköt:  Englantilaiset    Metriset   Molemmat
« Edellinen Päivä
Seuraava Päivä »
Päivittäin Viikoittain Kuukausittain Vuosittain Mukautettu
  Korkea: Matala: Keskiarvo:
Lämpötila: TemperatureC °F 10.6 °F 16.6 °F
Kastepiste: DewpointC °F 9.9 °F 15 °F
Kosteus: Humidity % 81 % 90 %
Tuulen nopeus: WindSpeedKMH mph 0.0 mph 0.2 mph
Tuulenpuuska: WindSpeedGustKMH mph - -
Tuuli:- - SSE
Ilmanpaine: PressurehPa in 1000.6 in -
Sade: 0.5 in    
Historical Graphs
 
 
Taulukkotiedot Heinäkuu 28, 2017
Aika Lämpötila Kastepiste Ilmanpaine Tuuli Tuulen nopeus Tuulenpuuska Kosteus Sademäärä (tunneittain)
TemperatureC °F DewpointC °F PressurehPa in Calm     Humidity % HourlyPrecipMM in
00:00 16.2 °F 15.0 °F 1004.6 in Calm     93 % 0.0 in
00:15 15.9 °F 14.8 °F 1004.6 in Calm     93 % 0.0 in
00:30 15.6 °F 14.5 °F 1004.6 in Calm     93 % 0.0 in
00:45 15.3 °F 14.2 °F 1004.6 in Calm     93 % 0.0 in
01:00 15.0 °F 13.9 °F 1004.6 in Calm     93 % 0.0 in
01:15 14.5 °F 13.5 °F 1004.6 in Calm     94 % 0.0 in
01:30 14.2 °F 13.2 °F 1004.6 in Calm     94 % 0.0 in
01:45 13.7 °F 12.8 °F 1004.6 in Calm     94 % 0.0 in
02:00 13.3 °F 12.4 °F 1004.6 in Calm     94 % 0.0 in
02:15 13.1 °F 12.3 °F 1004.6 in Calm     95 % 0.0 in
02:30 12.8 °F 12.1 °F 1004.6 in Calm     95 % 0.0 in
02:45 12.7 °F 11.9 °F 1004.6 in Calm     95 % 0.0 in
03:00 12.5 °F 11.7 °F 1004.6 in Calm     95 % 0.0 in
03:15 12.3 °F 11.7 °F 1004.6 in Calm     96 % 0.0 in
03:30 12.2 °F 11.5 °F 1004.6 in Calm     96 % 0.0 in
03:45 11.9 °F 11.3 °F 1004.6 in Calm     96 % 0.0 in
04:00 11.7 °F 11.1 °F 1004.3 in Calm     96 % 0.0 in
04:15 11.7 °F 11.1 °F 1004.3 in Calm     96 % 0.0 in
04:30 11.6 °F 11.0 °F 1004.3 in Calm     96 % 0.0 in
04:45 11.3 °F 10.7 °F 1004.3 in Calm     96 % 0.0 in
05:00 10.9 °F 10.3 °F 1004.3 in Calm     96 % 0.0 in
05:15 10.7 °F 10.1 °F 1004.3 in Calm     96 % 0.0 in
05:30 10.6 °F 9.9 °F 1004.3 in Calm     96 % 0.0 in
05:45 10.6 °F 10.1 °F 1004.3 in Calm     97 % 0.0 in
06:00 10.7 °F 10.3 °F 1004.3 in Calm     97 % 0.0 in
06:15 10.9 °F 10.5 °F 1004.3 in Calm     97 % 0.0 in
06:30 11.5 °F 11.0 °F 1004.3 in Calm     97 % 0.0 in
06:45 12.3 °F 12.0 °F 1003.9 in Calm     98 % 0.0 in
07:00 13.2 °F 12.9 °F 1003.9 in Calm     98 % 0.0 in
07:15 13.8 °F 13.5 °F 1003.9 in Calm     98 % 0.0 in
07:30 14.4 °F 14.1 °F 1003.6 in Calm     98 % 0.0 in
07:45 14.9 °F 14.6 °F 1003.9 in Calm   1.6 mph 98 % 0.0 in
08:00 15.4 °F 15.1 °F 1003.6 in Calm     98 % 0.0 in
08:15 15.8 °F 15.0 °F 1003.6 in Calm   3.2 mph 95 % 0.0 in
08:30 16.2 °F 15.3 °F 1003.6 in Calm   1.6 mph 94 % 0.0 in
08:45 16.8 °F 15.6 °F 1003.6 in Calm   1.6 mph 93 % 0.0 in
09:00 17.6 °F 15.6 °F 1003.6 in Calm   8.0 mph 88 % 0.0 in
09:15 18.6 °F 15.6 °F 1003.3 in South 1.6 mph 6.4 mph 83 % 0.0 in
09:30 19.2 °F 16.4 °F 1003.3 in Calm   1.6 mph 84 % 0.0 in
09:45 19.7 °F 16.4 °F 1002.9 in Calm   1.6 mph 81 % 0.0 in
10:00 19.8 °F 16.5 °F 1002.9 in Calm     81 % 0.0 in
10:15 19.8 °F 16.4 °F 1002.9 in Calm     81 % 0.0 in
10:30 19.7 °F 16.4 °F 1002.9 in Calm   1.6 mph 81 % 0.0 in
11:00 19.5 °F 16.2 °F 1003.3 in Calm   1.6 mph 81 % 0.0 in
11:15 19.4 °F 16.2 °F 1002.9 in Calm   3.2 mph 82 % 0.0 in
11:30 19.2 °F 16.5 °F 1002.9 in Calm   6.4 mph 84 % 0.0 in
11:45 19.1 °F 16.1 °F 1002.9 in Calm   1.6 mph 83 % 0.0 in
12:00 19.0 °F 16.0 °F 1002.9 in Calm   4.8 mph 83 % 0.0 in
12:15 18.7 °F 16.6 °F 1002.9 in Calm   3.2 mph 88 % 0.3 in
12:30 17.9 °F 16.3 °F 1002.9 in Calm   1.6 mph 90 % 0.3 in
12:45 17.7 °F 16.4 °F 1002.9 in Calm   1.6 mph 92 % 0.5 in
13:00 17.8 °F 16.5 °F 1002.6 in Calm   3.2 mph 92 % 0.5 in
13:15 17.8 °F 16.5 °F 1002.6 in Calm   8.0 mph 92 % 0.3 in
13:30 17.9 °F 16.6 °F 1002.6 in Calm   1.6 mph 92 % 0.3 in
13:45 17.8 °F 16.5 °F 1002.6 in Calm   3.2 mph 92 % 0.0 in
14:00 17.8 °F 16.5 °F 1002.6 in Calm   8.0 mph 92 % 0.0 in
14:15 17.9 °F 16.5 °F 1002.6 in South 1.6 mph 6.4 mph 91 % 0.0 in
14:30 17.9 °F 16.5 °F 1002.6 in SE 1.6 mph 11.3 mph 91 % 0.0 in
14:45 17.9 °F 16.2 °F 1002.6 in South 1.6 mph 9.7 mph 90 % 0.0 in
15:00 17.9 °F 16.3 °F 1002.6 in SSE 1.6 mph 11.3 mph 90 % 0.0 in
15:15 17.9 °F 16.4 °F 1002.6 in SE 1.6 mph 9.7 mph 91 % 0.0 in
15:30 17.9 °F 16.8 °F 1002.6 in Calm   6.4 mph 93 % 0.3 in
15:45 18.2 °F 17.0 °F 1002.3 in South 1.6 mph 9.7 mph 93 % 0.3 in
16:00 18.7 °F 17.4 °F 1002.3 in SSE 1.6 mph 9.7 mph 92 % 0.3 in
16:15 18.9 °F 17.3 °F 1002.3 in SE 1.6 mph 12.9 mph 90 % 0.3 in
16:30 19.3 °F 17.3 °F 1001.9 in Calm   6.4 mph 88 % 0.0 in
16:45 19.8 °F 17.6 °F 1001.9 in SE 1.6 mph 8.0 mph 87 % 0.0 in
17:00 19.8 °F 17.4 °F 1001.9 in Calm   9.7 mph 86 % 0.0 in
17:15 20.1 °F 17.5 °F 1001.9 in Calm   3.2 mph 85 % 0.0 in
17:30 20.4 °F 17.6 °F 1001.6 in ESE 1.6 mph 9.7 mph 84 % 0.0 in
17:45 20.7 °F 17.7 °F 1001.6 in Calm   3.2 mph 83 % 0.0 in
18:00 21.3 °F 18.1 °F 1001.6 in Calm   6.4 mph 82 % 0.0 in
18:15 21.4 °F 18.0 °F 1001.6 in Calm   6.4 mph 81 % 0.0 in
18:30 21.3 °F 17.9 °F 1001.6 in ESE 1.6 mph 12.9 mph 81 % 0.0 in
18:45 21.5 °F 18.1 °F 1001.6 in Calm   8.0 mph 81 % 0.0 in
19:00 21.0 °F 17.8 °F 1001.6 in Calm   4.8 mph 82 % 0.0 in
19:15 20.5 °F 17.7 °F 1001.2 in Calm   8.0 mph 84 % 0.0 in
19:30 20.1 °F 17.3 °F 1001.2 in Calm   8.0 mph 84 % 0.0 in
19:45 19.8 °F 17.2 °F 1001.2 in Calm   1.6 mph 85 % 0.0 in
20:00 19.6 °F 17.4 °F 1001.2 in Calm     87 % 0.0 in
20:15 19.4 °F 17.2 °F 1001.2 in Calm     87 % 0.0 in
20:30 19.2 °F 17.1 °F 1001.2 in Calm     88 % 0.0 in
20:45 19.0 °F 17.1 °F 1001.2 in Calm     89 % 0.0 in
21:00 18.8 °F 17.1 °F 1001.2 in Calm     90 % 0.0 in
21:15 18.6 °F 16.9 °F 1001.2 in Calm     90 % 0.0 in
21:30 18.3 °F 16.8 °F 1001.2 in Calm     91 % 0.0 in
21:45 18.1 °F 16.7 °F 1001.2 in Calm     92 % 0.0 in
22:00 17.8 °F 16.5 °F 1000.9 in Calm   1.6 mph 92 % 0.0 in
22:15 17.7 °F 16.6 °F 1000.9 in Calm   3.2 mph 93 % 0.0 in
22:30 17.7 °F 16.6 °F 1000.9 in Calm   3.2 mph 93 % 0.0 in
22:45 17.7 °F 16.6 °F 1000.9 in Calm     93 % 0.0 in
23:00 17.8 °F 16.6 °F 1000.9 in Calm     93 % 0.0 in
23:15 17.7 °F 16.5 °F 1000.9 in Calm   1.6 mph 93 % 0.0 in
23:30 17.6 °F 16.4 °F 1000.9 in Calm     93 % 0.0 in
23:45 17.4 °F 16.5 °F 1000.6 in Calm     94 % 0.0 in
Esan sääasema
Terveisin Weather Underground - 2.75 mb

Alkuperäinen skripti  Jim McMurry - jmcmurry@mwt.net Sovitettu myös templatelle  Wim van der Kuil - Leuven-Template.eu

Laitteet joita käytämme:

Sääasema
Davis VP2

Sääasemaohjelma
Cumulus

Sääaseman tietokone
Asus EeePC

Palveluntarjoaja
Suncomet

Davis VP2

Cumulus

Asus EeePC

Suncomet